Terminal Aerodrome Forecast
Issued by NWS Green Bay, WI

Home | Current Version | Previous Version | Text Only | Print | Product List | Glossary On
Versions: 1 2 3 4 5 6 7 8 9 10 11 12 13 14 15 16 17 18 19 20 21 22 23 24 25 26 27 28 29 30 31 32 33 34 35 36
000
FTUS43 KGRB 091738
TAFGRB
TAF
KGRB 091738Z 0918/1018 32014G21KT P6SM -SN BKN040
      TEMPO 0918/0920 SCT040
     FM092000 33017G22KT P6SM BKN035
      TEMPO 0920/0924 4SM -SN BKN021
     FM100400 32011G17KT P6SM BKN040
      TEMPO 1008/1012 SCT040
     FM101400 32012G20KT P6SM OVC050=

USA.gov is the U.S. government's official web portal to all federal, state and local government web resources and services.